Time;durP1;ratioP1;P1;durP2;ratioP2;P2;SDS_P1;SDS_P2;PMS_P1;PMS_P2;Temp;Humidity;BMP_temperature;BMP_pressure;BME280_temperature;BME280_humidity;BME280_pressure;Samples;Min_cycle;Max_cycle;Signal;HPM_P1;HPM_P2
2021/07/19 00:00:43;;;;;;;31.30;20.17;;;;;;;20.63;84.65;98286.88;4972379;28;20053;-70
2021/07/19 00:03:09;;;;;;;35.13;20.55;;;;;;;20.62;84.69;98290.72;4955144;28;20058;-70
2021/07/19 00:05:35;;;;;;;34.45;20.42;;;;;;;20.62;84.59;98277.25;4987177;28;20049;-69
2021/07/19 00:08:00;;;;;;;35.20;20.40;;;;;;;20.62;84.55;98276.47;4972674;28;20416;-69
2021/07/19 00:10:26;;;;;;;34.33;19.77;;;;;;;20.61;84.38;98283.72;4971100;28;20038;-70
2021/07/19 00:12:52;;;;;;;32.75;19.67;;;;;;;20.63;84.55;98286.09;4972456;28;20365;-70
2021/07/19 00:15:24;;;;;;;30.90;18.88;;;;;;;20.64;84.40;98282.28;4972256;28;20053;-70
2021/07/19 00:17:50;;;;;;;26.50;17.77;;;;;;;20.63;84.44;98278.81;4972086;28;20530;-69
2021/07/19 00:20:16;;;;;;;27.05;17.67;;;;;;;20.64;84.23;98293.06;4954886;28;20082;-70
2021/07/19 00:22:42;;;;;;;27.95;16.98;;;;;;;20.60;84.37;98286.75;4971160;28;20134;-71
2021/07/19 00:25:11;;;;;;;26.48;17.23;;;;;;;20.59;84.38;98283.28;4972441;28;20113;-70
2021/07/19 00:27:38;;;;;;;27.40;17.02;;;;;;;20.58;84.49;98279.00;4971102;28;20047;-70
2021/07/19 00:30:17;;;;;;;27.73;16.88;;;;;;;20.61;84.27;98285.63;4972183;28;20062;-70
2021/07/19 00:32:43;;;;;;;21.35;15.80;;;;;;;20.63;84.19;98294.97;4970793;28;20050;-70
2021/07/19 00:35:09;;;;;;;23.52;15.75;;;;;;;20.64;84.01;98291.16;4973126;28;20412;-70
2021/07/19 00:37:35;;;;;;;26.90;15.85;;;;;;;20.66;83.86;98285.44;4976192;28;20046;-71
2021/07/19 00:40:16;;;;;;;24.88;15.57;;;;;;;20.67;83.73;98281.63;4990823;28;20039;-70
2021/07/19 00:42:44;;;;;;;23.42;15.15;;;;;;;20.65;83.92;98273.09;4990563;28;20059;-70
2021/07/19 00:45:22;;;;;;;28.13;16.88;;;;;;;20.67;83.91;98283.53;4975570;28;20479;-69
2021/07/19 00:47:50;;;;;;;25.10;16.73;;;;;;;20.66;83.64;98284.66;4942463;28;20047;-69
2021/07/19 00:50:18;;;;;;;26.05;16.60;;;;;;;20.66;84.09;98274.66;4975706;28;20137;-69
2021/07/19 00:52:44;;;;;;;23.00;16.13;;;;;;;20.60;83.97;98266.00;4974112;28;20058;-70
2021/07/19 00:55:12;;;;;;;25.05;16.83;;;;;;;20.64;84.00;98266.91;4942042;28;20043;-70
2021/07/19 00:57:41;;;;;;;25.92;16.33;;;;;;;20.69;83.85;98278.63;4958014;28;20142;-70
2021/07/19 01:00:09;;;;;;;25.20;16.50;;;;;;;20.70;83.99;98282.88;4973948;28;20046;-70
2021/07/19 01:02:41;;;;;;;27.25;17.75;;;;;;;20.68;84.03;98280.53;4973070;28;20051;-67
2021/07/19 01:05:08;;;;;;;28.25;16.73;;;;;;;20.69;83.90;98282.09;4957749;28;20503;-69
2021/07/19 01:07:38;;;;;;;25.45;16.52;;;;;;;20.67;84.00;98280.84;4973978;28;20100;-70
2021/07/19 01:10:09;;;;;;;31.77;17.90;;;;;;;20.66;83.95;98287.34;4958315;28;20051;-68
2021/07/19 01:12:36;;;;;;;29.45;17.20;;;;;;;20.66;84.04;98282.75;4973814;28;20496;-70
2021/07/19 01:15:05;;;;;;;28.48;18.00;;;;;;;20.63;84.40;98281.50;4990191;28;20441;-70
2021/07/19 01:17:33;;;;;;;27.40;17.92;;;;;;;20.61;84.53;98286.41;4974801;28;20489;-69
2021/07/19 01:19:58;;;;;;;27.17;17.60;;;;;;;20.58;84.57;98276.31;4941518;28;20074;-70
2021/07/19 01:22:26;;;;;;;33.08;18.65;;;;;;;20.58;84.61;98283.59;4957630;28;20046;-68
2021/07/19 01:25:29;;;;;;;32.75;17.52;;;;;;;20.57;84.70;98280.13;4974933;28;20038;-70
2021/07/19 01:28:31;;;;;;;41.38;19.42;;;;;;;20.56;84.79;98277.75;4973568;28;20106;-70
2021/07/19 01:31:04;;;;;;;32.45;18.67;;;;;;;20.51;85.08;98272.56;4973536;28;20047;-70
2021/07/19 01:33:32;;;;;;;35.35;18.77;;;;;;;20.53;85.04;98275.72;4989747;28;20043;-70
2021/07/19 01:35:59;;;;;;;33.58;18.98;;;;;;;20.54;85.13;98280.00;4989511;28;20122;-71
2021/07/19 01:38:26;;;;;;;30.70;18.08;;;;;;;20.56;85.12;98272.38;4973299;28;20053;-69
2021/07/19 01:40:52;;;;;;;29.35;17.67;;;;;;;20.58;84.99;98279.00;4957386;28;20051;-70
2021/07/19 01:43:19;;;;;;;32.65;18.58;;;;;;;20.56;84.91;98272.38;4957386;28;20332;-69
2021/07/19 01:45:48;;;;;;;28.98;17.58;;;;;;;20.63;84.71;98275.34;4972592;28;20085;-70
2021/07/19 01:48:14;;;;;;;31.50;18.00;;;;;;;20.62;84.82;98277.25;4974690;28;20051;-70
2021/07/19 01:50:41;;;;;;;29.48;17.42;;;;;;;20.62;84.51;98273.78;4973150;28;20051;-69
2021/07/19 01:53:17;;;;;;;25.85;16.10;;;;;;;20.63;84.84;98270.72;4956997;28;20050;-71
2021/07/19 01:55:44;;;;;;;25.88;16.40;;;;;;;20.66;84.53;98273.88;4941416;28;20073;-70
2021/07/19 01:58:12;;;;;;;28.75;16.55;;;;;;;20.66;84.70;98273.88;4973070;28;20137;-69
2021/07/19 02:00:43;;;;;;;27.05;16.67;;;;;;;20.71;84.23;98276.38;4956857;28;20051;-71
2021/07/19 02:03:11;;;;;;;29.40;16.75;;;;;;;20.72;84.21;98280.66;4957084;28;20085;-69
2021/07/19 02:05:44;;;;;;;28.30;16.15;;;;;;;20.71;84.24;98281.78;4957538;28;20584;-71
2021/07/19 02:08:15;;;;;;;26.83;16.38;;;;;;;20.74;84.03;98286.50;4956980;28;20121;-71
2021/07/19 02:10:54;;;;;;;28.92;15.65;;;;;;;20.76;83.95;98282.31;4958748;28;20046;-70
2021/07/19 02:13:26;;;;;;;22.98;15.02;;;;;;;20.76;83.87;98279.63;4972791;28;20047;-69
2021/07/19 02:15:56;;;;;;;26.30;15.48;;;;;;;20.77;83.87;98278.53;4956901;28;20042;-70
2021/07/19 02:18:26;;;;;;;25.25;15.98;;;;;;;20.78;83.68;98280.09;4972565;28;20645;-66
2021/07/19 02:20:55;;;;;;;25.42;16.08;;;;;;;20.80;83.69;98282.47;4988610;28;20070;-69
2021/07/19 02:23:22;;;;;;;27.30;16.05;;;;;;;20.81;83.79;98289.44;4972350;28;20117;-70
2021/07/19 02:26:14;;;;;;;29.30;16.73;;;;;;;20.80;83.59;98282.47;4971161;28;20481;-70
2021/07/19 02:28:43;;;;;;;27.10;14.75;;;;;;;20.82;83.63;98291.00;4972468;28;20134;-70
2021/07/19 02:31:11;;;;;;;24.40;14.80;;;;;;;20.82;83.49;98286.41;4956831;28;20053;-70
2021/07/19 02:33:42;;;;;;;20.17;12.77;;;;;;;20.83;83.13;98281.81;4973642;28;20043;-70
2021/07/19 02:36:14;;;;;;;18.67;13.07;;;;;;;20.81;83.47;98284.03;4956464;28;20046;-69
2021/07/19 02:38:41;;;;;;;19.13;13.63;;;;;;;20.81;83.19;98278.66;4971945;28;20102;-68
2021/07/19 02:41:25;;;;;;;15.70;12.40;;;;;;;20.79;83.13;98283.56;4956019;28;20130;-69
2021/07/19 02:43:56;;;;;;;17.40;11.80;;;;;;;20.82;82.95;98274.81;4940577;28;20047;-69
2021/07/19 02:46:30;;;;;;;16.52;12.05;;;;;;;20.88;82.63;98276.19;4941189;28;20050;-69
2021/07/19 02:48:57;;;;;;;16.50;12.07;;;;;;;20.87;82.81;98271.94;4988292;28;20081;-69
2021/07/19 02:51:27;;;;;;;16.13;12.07;;;;;;;20.90;82.61;98275.88;4955965;28;20620;-69
2021/07/19 02:53:57;;;;;;;16.52;11.63;;;;;;;20.91;82.46;98280.91;4956517;28;20038;-69
2021/07/19 02:56:24;;;;;;;20.15;11.73;;;;;;;20.93;82.76;98275.22;4940203;28;20042;-70
2021/07/19 02:58:51;;;;;;;16.85;12.35;;;;;;;20.94;82.43;98274.06;4972928;28;20464;-69
2021/07/19 03:01:21;;;;;;;15.43;10.98;;;;;;;20.99;82.09;98280.03;4940360;28;20101;-69
2021/07/19 03:03:48;;;;;;;14.23;10.88;;;;;;;21.04;81.94;98271.75;4971796;28;20062;-68
2021/07/19 03:06:20;;;;;;;13.18;10.13;;;;;;;21.06;81.67;98274.09;4987262;28;20054;-68
2021/07/19 03:08:47;;;;;;;13.68;10.25;;;;;;;21.03;81.33;98278.28;4972959;28;20046;-70
2021/07/19 03:11:39;;;;;;;15.43;10.30;;;;;;;21.12;81.14;98283.56;4971881;28;20051;-70
2021/07/19 03:14:09;;;;;;;14.33;10.67;;;;;;;21.06;81.10;98274.91;4971526;28;20105;-70
2021/07/19 03:16:36;;;;;;;18.23;10.88;;;;;;;21.15;81.16;98291.00;4939568;28;20170;-71
2021/07/19 03:19:04;;;;;;;14.63;10.18;;;;;;;21.21;81.04;98288.88;4972866;28;20161;-70
2021/07/19 03:21:33;;;;;;;15.00;9.93;;;;;;;21.21;80.53;98289.66;4971339;28;20474;-69
2021/07/19 03:24:09;;;;;;;13.13;9.63;;;;;;;21.25;80.60;98298.63;4941697;28;20066;-69
2021/07/19 03:26:37;;;;;;;;;;;;;;;21.26;80.69;98310.97;4972246;28;20100;-70
2021/07/19 03:29:05;;;;;;;12.32;8.85;;;;;;;21.24;80.27;98299.75;4971710;28;19945;-69
2021/07/19 03:31:41;;;;;;;14.73;8.40;;;;;;;21.36;79.94;98304.41;4956474;28;20047;-70
2021/07/19 03:34:11;;;;;;;12.32;9.48;;;;;;;21.44;79.88;98313.50;4939451;28;20424;-70
2021/07/19 03:36:38;;;;;;;13.98;10.25;;;;;;;21.45;79.75;98312.41;4971377;28;20097;-70
2021/07/19 03:39:05;;;;;;;13.75;10.10;;;;;;;21.45;79.78;98320.50;4971142;28;20062;-70
2021/07/19 03:41:44;;;;;;;14.02;10.20;;;;;;;21.43;79.88;98315.41;4972839;28;20551;-70
2021/07/19 03:44:11;;;;;;;12.50;9.80;;;;;;;21.41;80.02;98311.47;4971183;28;20058;-70
2021/07/19 03:46:40;;;;;;;14.52;10.07;;;;;;;21.40;80.23;98315.31;4955569;28;20046;-70
2021/07/19 03:49:06;;;;;;;14.82;10.55;;;;;;;21.42;80.10;98310.38;4955381;28;20516;-69
2021/07/19 03:51:33;;;;;;;15.65;10.88;;;;;;;21.46;79.96;98312.06;4955177;28;20130;-70
2021/07/19 03:54:02;;;;;;;15.52;10.38;;;;;;;21.55;79.77;98311.94;4955760;28;20058;-70
2021/07/19 03:56:30;;;;;;;17.00;10.80;;;;;;;21.62;79.74;98314.09;4955533;28;20500;-69
2021/07/19 03:58:57;;;;;;;20.63;10.60;;;;;;;21.69;79.53;98320.50;4955300;28;20047;-68
2021/07/19 04:01:24;;;;;;;15.10;10.65;;;;;;;21.73;79.23;98321.38;4939113;28;20042;-70
2021/07/19 04:03:55;;;;;;;14.55;10.75;;;;;;;21.77;79.04;98316.13;4955134;28;20362;-69
2021/07/19 04:06:28;;;;;;;14.52;10.23;;;;;;;21.81;79.25;98317.03;4970729;28;20074;-70
2021/07/19 04:08:56;;;;;;;15.05;11.98;;;;;;;21.82;78.88;98307.78;4923750;28;20145;-69
2021/07/19 04:11:27;;;;;;;14.68;10.13;;;;;;;21.86;78.78;98313.31;4959130;28;20078;-70
2021/07/19 04:14:03;;;;;;;12.88;9.20;;;;;;;21.95;78.39;98311.28;4974997;28;20046;-69
2021/07/19 04:16:29;;;;;;;14.43;9.70;;;;;;;22.07;77.86;98308.56;4974880;28;20133;-69
2021/07/19 04:18:55;;;;;;;13.20;9.98;;;;;;;22.26;76.94;98316.09;4942672;28;20145;-69
2021/07/19 04:21:22;;;;;;;14.27;9.75;;;;;;;22.49;76.50;98313.69;4974702;28;20051;-69
2021/07/19 04:23:52;;;;;;;12.13;8.60;;;;;;;22.70;75.53;98318.91;4958504;28;20050;-69
2021/07/19 04:26:23;;;;;;;12.55;9.07;;;;;;;22.97;74.33;98320.06;4976064;28;20055;-70
2021/07/19 04:29:00;;;;;;;15.82;9.98;;;;;;;23.13;73.58;98322.78;4959716;28;20056;-70
2021/07/19 04:31:27;;;;;;;13.02;9.70;;;;;;;23.15;73.75;98328.66;4974491;28;20053;-68
2021/07/19 04:33:59;;;;;;;12.43;9.52;;;;;;;23.03;73.81;98324.09;4959186;28;20059;-69
2021/07/19 04:36:33;;;;;;;13.57;8.80;;;;;;;23.07;74.00;98322.25;4975835;28;20157;-69
2021/07/19 04:39:01;;;;;;;11.63;8.75;;;;;;;23.17;73.97;98320.97;4974527;28;20062;-69
2021/07/19 04:41:26;;;;;;;13.30;9.57;;;;;;;23.19;73.52;98318.72;4974216;28;20504;-71
2021/07/19 04:43:52;;;;;;;14.88;9.75;;;;;;;23.30;73.04;98322.47;4974459;28;20061;-70
2021/07/19 04:46:18;;;;;;;11.82;9.07;;;;;;;23.42;72.92;98313.50;4990508;28;20138;-70
2021/07/19 04:48:46;;;;;;;12.40;9.63;;;;;;;23.52;72.28;98309.47;4942616;28;20070;-68
2021/07/19 04:51:12;;;;;;;11.98;8.98;;;;;;;23.56;72.39;98313.84;4973872;28;20096;-69
2021/07/19 04:53:39;;;;;;;15.48;10.60;;;;;;;23.66;71.91;98309.81;4967191;28;20058;-70
2021/07/19 04:56:05;;;;;;;14.85;9.63;;;;;;;23.67;72.06;98313.31;4970426;28;20054;-71
2021/07/19 04:58:32;;;;;;;15.68;9.38;;;;;;;23.57;72.60;98318.13;4952894;28;20046;-69
2021/07/19 05:01:00;;;;;;;14.40;10.02;;;;;;;23.47;73.00;98323.25;4969409;28;20073;-69
2021/07/19 05:03:28;;;;;;;10.48;8.98;;;;;;;23.42;73.22;98329.72;4935317;28;20146;-70
2021/07/19 05:05:55;;;;;;;13.80;10.10;;;;;;;23.41;72.97;98327.34;4970615;28;20484;-71
2021/07/19 05:08:21;;;;;;;15.48;10.23;;;;;;;23.31;73.20;98329.44;4971592;28;20097;-68
2021/07/19 05:10:49;;;;;;;12.13;10.23;;;;;;;23.30;73.56;98330.59;4952446;28;20528;-70
2021/07/19 05:13:16;;;;;;;15.55;10.02;;;;;;;23.33;73.44;98332.59;4971297;28;20050;-69
2021/07/19 05:15:42;;;;;;;13.27;10.27;;;;;;;23.39;72.99;98329.63;4971517;28;20050;-73
2021/07/19 05:18:09;;;;;;;13.70;10.02;;;;;;;23.45;72.98;98328.25;4969160;28;20641;-70
2021/07/19 05:20:37;;;;;;;13.25;9.52;;;;;;;23.64;72.60;98328.31;4953264;28;20046;-70
2021/07/19 05:23:03;;;;;;;12.82;9.10;;;;;;;23.69;71.88;98328.06;4970082;28;20081;-69
2021/07/19 05:25:31;;;;;;;16.63;9.93;;;;;;;23.74;71.45;98327.84;4985830;28;20100;-71
2021/07/19 05:28:11;;;;;;;14.57;8.65;;;;;;;23.85;71.06;98322.66;4969830;28;20047;-70
2021/07/19 05:30:39;;;;;;;10.82;9.43;;;;;;;23.87;70.51;98323.09;4954829;28;20094;-69
2021/07/19 05:33:05;;;;;;;12.75;9.32;;;;;;;23.94;70.87;98320.56;4953266;28;20047;-70
2021/07/19 05:35:32;;;;;;;10.93;9.45;;;;;;;23.99;70.37;98323.00;4969268;28;20088;-67
2021/07/19 05:37:58;;;;;;;14.73;9.75;;;;;;;24.10;70.01;98327.88;4953235;28;20046;-68
2021/07/19 05:40:25;;;;;;;10.60;9.23;;;;;;;24.25;69.43;98333.25;4969268;28;20131;-69
2021/07/19 05:42:51;;;;;;;15.38;9.70;;;;;;;24.19;69.45;98328.47;4969982;28;20054;-72
2021/07/19 05:45:17;;;;;;;12.50;9.93;;;;;;;24.26;69.71;98328.59;4969249;28;20043;-71
2021/07/19 05:47:43;;;;;;;11.35;8.90;;;;;;;24.40;69.20;98328.91;4968582;28;20038;-70
2021/07/19 05:50:10;;;;;;;13.23;9.77;;;;;;;24.52;68.37;98321.84;4968370;28;20058;-71
2021/07/19 05:52:35;;;;;;;10.63;9.20;;;;;;;24.80;67.87;98324.34;4968262;28;20515;-70
2021/07/19 05:55:03;;;;;;;10.90;9.48;;;;;;;25.08;66.81;98332.22;4935165;28;20038;-71
2021/07/19 05:57:29;;;;;;;11.10;8.68;;;;;;;25.18;66.42;98325.44;4969009;28;20059;-70
2021/07/19 05:59:56;;;;;;;12.18;9.05;;;;;;;25.12;66.01;98342.00;4936618;28;20069;-72
2021/07/19 06:02:24;;;;;;;13.18;8.98;;;;;;;25.04;66.44;98332.16;4983792;28;20043;-70
2021/07/19 06:04:51;;;;;;;12.07;9.27;;;;;;;25.08;66.92;98335.69;4971066;28;20042;-70
2021/07/19 06:07:16;;;;;;;10.25;8.55;;;;;;;25.24;66.15;98338.34;4973538;28;20047;-72
2021/07/19 06:09:44;;;;;;;11.65;9.10;;;;;;;25.33;65.25;98338.13;4956128;28;20049;-70
2021/07/19 06:12:13;;;;;;;10.73;8.63;;;;;;;25.40;65.52;98337.47;4973243;28;20412;-70
2021/07/19 06:14:42;;;;;;;10.38;8.98;;;;;;;25.56;64.42;98338.91;4973178;28;20141;-71
2021/07/19 06:17:09;;;;;;;11.95;8.75;;;;;;;25.75;64.55;98338.03;4972200;28;20050;-69
2021/07/19 06:19:35;;;;;;;14.73;9.10;;;;;;;25.83;63.93;98339.75;4939825;28;20062;-70
2021/07/19 06:22:01;;;;;;;12.25;8.75;;;;;;;25.90;63.55;98327.44;4956168;28;20043;-71
2021/07/19 06:24:27;;;;;;;11.05;8.98;;;;;;;25.88;63.30;98327.00;4973187;28;20366;-71
2021/07/19 06:26:52;;;;;;;12.32;9.32;;;;;;;25.77;63.81;98332.28;4971936;28;20047;-71
2021/07/19 06:29:18;;;;;;;12.07;9.32;;;;;;;25.76;64.39;98331.47;4987998;28;20584;-70
2021/07/19 06:31:44;;;;;;;14.48;9.27;;;;;;;25.79;64.38;98335.38;4955547;28;20113;-71
2021/07/19 06:34:10;;;;;;;10.40;8.38;;;;;;;25.92;63.57;98327.88;4971864;28;20137;-70
2021/07/19 06:36:37;;;;;;;12.10;8.60;;;;;;;26.18;62.99;98329.81;4973149;28;20051;-71
2021/07/19 06:39:04;;;;;;;12.20;9.65;;;;;;;26.34;62.50;98335.06;4987851;28;20058;-71
2021/07/19 06:41:31;;;;;;;14.27;9.48;;;;;;;26.57;61.83;98349.34;4987746;28;20049;-70
2021/07/19 06:43:57;;;;;;;9.23;7.78;;;;;;;26.79;61.34;98350.38;4955783;28;20050;-70
2021/07/19 06:46:23;;;;;;;11.20;8.82;;;;;;;26.71;59.63;98346.81;4987758;28;20045;-70
2021/07/19 06:48:48;;;;;;;11.52;8.70;;;;;;;26.78;60.61;98357.00;4973324;28;20275;-70
2021/07/19 06:51:14;;;;;;;11.90;9.18;;;;;;;26.76;60.49;98350.34;4987763;28;20057;-71
2021/07/19 06:53:40;;;;;;;11.32;9.43;;;;;;;26.60;60.80;98345.13;4955537;28;20138;-71
2021/07/19 06:56:07;;;;;;;11.20;8.95;;;;;;;26.51;61.35;98356.28;4955524;28;20402;-70
2021/07/19 06:58:34;;;;;;;12.52;9.32;;;;;;;26.54;60.79;98352.81;4923663;28;20468;-72
2021/07/19 07:00:59;;;;;;;10.35;9.25;;;;;;;26.65;60.67;98356.47;4972577;28;20065;-71
2021/07/19 07:03:25;;;;;;;13.57;9.18;;;;;;;26.73;60.34;98344.50;4972737;28;20496;-70
2021/07/19 07:05:51;;;;;;;13.70;10.10;;;;;;;26.80;60.34;98351.19;4971460;28;20101;-71
2021/07/19 07:08:17;;;;;;;11.70;9.50;;;;;;;26.79;59.84;98342.22;4972844;28;20057;-72
2021/07/19 07:10:43;;;;;;;11.45;8.55;;;;;;;26.72;60.05;98342.16;4987815;28;20049;-71
2021/07/19 07:13:09;;;;;;;12.90;9.48;;;;;;;26.60;60.16;98332.31;4971222;28;20055;-71
2021/07/19 07:15:39;;;;;;;12.75;9.55;;;;;;;26.61;60.67;98325.72;4954467;28;20038;-71
2021/07/19 07:18:07;;;;;;;14.25;9.35;;;;;;;26.59;60.98;98341.63;4954655;28;20425;-70
2021/07/19 07:20:34;;;;;;;13.88;10.10;;;;;;;26.52;60.60;98338.03;4988046;28;20057;-70
2021/07/19 07:22:59;;;;;;;11.27;9.20;;;;;;;26.54;60.09;98339.22;4984709;28;20060;-70
2021/07/19 07:25:26;;;;;;;10.15;8.98;;;;;;;26.56;60.59;98344.28;4989857;28;20046;-71
2021/07/19 07:27:51;;;;;;;14.02;10.25;;;;;;;26.59;60.24;98349.78;4986088;28;20058;-70
2021/07/19 07:30:17;;;;;;;10.70;9.43;;;;;;;26.68;59.67;98350.28;4986544;28;20100;-70
2021/07/19 07:32:44;;;;;;;11.20;9.27;;;;;;;26.77;59.57;98350.00;4972039;28;20154;-69
2021/07/19 07:35:10;;;;;;;12.50;10.40;;;;;;;26.81;60.18;98348.09;4973371;28;20647;-71
2021/07/19 07:37:37;;;;;;;14.52;9.75;;;;;;;26.80;59.78;98351.19;4988184;28;20500;-71
2021/07/19 07:40:05;;;;;;;13.85;9.50;;;;;;;26.88;59.27;98333.78;4989821;28;20104;-71
2021/07/19 07:42:31;;;;;;;11.32;9.13;;;;;;;26.98;58.65;98338.56;4966640;28;20042;-69
2021/07/19 07:44:57;;;;;;;12.57;9.00;;;;;;;27.07;58.36;98341.78;4983736;28;20042;-70
2021/07/19 07:47:23;;;;;;;10.50;8.98;;;;;;;27.16;58.39;98341.50;4953919;28;20472;-68
2021/07/19 07:49:49;;;;;;;11.18;9.77;;;;;;;27.13;58.21;98334.06;4987447;28;20050;-72
2021/07/19 07:52:16;;;;;;;13.02;9.68;;;;;;;26.99;58.61;98334.69;4989132;28;20056;-70
2021/07/19 07:54:42;;;;;;;12.50;9.43;;;;;;;27.05;58.01;98343.31;4989056;28;20050;-70
2021/07/19 07:57:07;;;;;;;13.48;9.20;;;;;;;26.95;58.45;98334.66;4986636;28;20097;-70
2021/07/19 07:59:34;;;;;;;12.25;9.60;;;;;;;26.96;58.20;98330.00;4989995;28;20141;-70
2021/07/19 08:02:00;;;;;;;12.85;9.25;;;;;;;26.76;58.79;98329.38;4955703;28;20446;-70
2021/07/19 08:04:29;;;;;;;11.65;8.60;;;;;;;26.80;57.76;98326.72;4955008;28;20038;-69
2021/07/19 08:07:00;;;;;;;10.17;8.60;;;;;;;26.90;57.41;98326.06;4987041;28;20527;-68
2021/07/19 08:09:27;;;;;;;11.70;8.73;;;;;;;27.09;57.61;98317.72;4987280;28;20558;-69
2021/07/19 08:11:54;;;;;;;11.75;8.48;;;;;;;27.34;56.72;98317.97;5002480;28;20092;-69
2021/07/19 08:14:20;;;;;;;10.20;8.38;;;;;;;27.48;56.00;98319.28;4971136;28;20051;-68
2021/07/19 08:16:46;;;;;;;9.20;7.70;;;;;;;27.53;55.40;98310.72;4972034;28;20124;-70
2021/07/19 08:19:12;;;;;;;12.23;8.18;;;;;;;27.75;54.12;98312.47;4985639;28;20078;-70
2021/07/19 08:21:39;;;;;;;10.68;8.68;;;;;;;27.85;53.83;98309.09;4987837;28;20100;-70
2021/07/19 08:47:47;;;;;;;10.98;8.73;;;;;;;28.99;50.18;98297.13;5107085;27;20363;-68
2021/07/19 08:50:14;;;;;;;11.82;7.78;;;;;;;29.22;49.57;98290.59;5107913;28;20082;-68
2021/07/19 08:52:41;;;;;;;12.18;8.13;;;;;;;29.40;49.96;98296.84;5104399;28;20040;-68
2021/07/19 08:55:10;;;;;;;9.32;7.90;;;;;;;29.57;48.52;98303.47;5089728;28;20040;-69
2021/07/19 08:57:40;;;;;;;12.35;8.18;;;;;;;29.62;47.82;98295.69;5084533;28;20542;-68
2021/07/19 09:00:09;;;;;;;9.45;6.78;;;;;;;29.53;47.27;98294.47;5084454;28;20457;-68
2021/07/19 09:02:35;;;;;;;8.73;7.53;;;;;;;29.49;46.48;98291.75;5084625;28;20135;-69
2021/07/19 09:05:01;;;;;;;9.45;7.38;;;;;;;29.40;46.42;98283.19;5084833;28;20044;-70
2021/07/19 09:07:27;;;;;;;9.23;6.93;;;;;;;29.30;47.01;98283.97;5083207;28;20507;-69
2021/07/19 09:09:53;;;;;;;10.98;7.38;;;;;;;29.28;46.57;98283.56;5085181;28;20082;-68
2021/07/19 09:12:47;;;;;;;8.77;6.65;;;;;;;29.41;46.09;98277.34;5083316;28;20038;-67
2021/07/19 09:15:14;;;;;;;8.38;6.75;;;;;;;29.48;46.44;98276.56;5084469;28;20133;-69
2021/07/19 09:17:41;;;;;;;7.88;6.82;;;;;;;29.54;46.21;98285.91;5083954;28;20131;-69
2021/07/19 09:20:11;;;;;;;8.27;6.25;;;;;;;29.59;45.30;98280.06;5083713;28;20048;-69
2021/07/19 09:22:37;;;;;;;9.48;7.15;;;;;;;29.66;46.33;98282.03;5084311;28;20054;-70
2021/07/19 09:25:06;;;;;;;9.77;6.95;;;;;;;29.69;44.80;98280.47;5085265;28;20040;-69
2021/07/19 09:27:32;;;;;;;12.52;6.75;;;;;;;29.84;44.28;98282.00;5086177;28;20048;-69
2021/07/19 09:29:58;;;;;;;7.32;6.43;;;;;;;29.85;44.27;98273.41;5106059;28;20036;-69
2021/07/19 09:32:24;;;;;;;8.70;6.75;;;;;;;29.90;44.39;98277.69;5086788;28;20098;-70
2021/07/19 09:34:50;;;;;;;7.93;6.75;;;;;;;30.03;43.16;98272.59;5104305;28;20485;-70
2021/07/19 09:37:17;;;;;;;10.00;6.47;;;;;;;29.86;42.87;98276.94;5103727;28;20071;-68
2021/07/19 09:39:45;;;;;;;9.25;6.47;;;;;;;29.55;43.88;98270.31;5106947;28;20130;-70
2021/07/19 09:42:13;;;;;;;9.07;6.93;;;;;;;29.45;44.53;98273.84;5105617;28;20048;-69
2021/07/19 09:44:40;;;;;;;7.90;6.70;;;;;;;29.41;44.40;98271.09;5104569;28;20040;-70
2021/07/19 09:47:09;;;;;;;17.73;7.72;;;;;;;29.50;44.54;98278.88;5101220;28;20357;-69
2021/07/19 09:49:35;;;;;;;8.02;6.18;;;;;;;29.64;43.64;98281.63;5092613;28;20577;-70
2021/07/19 09:52:07;;;;;;;10.38;6.22;;;;;;;29.71;42.46;98275.38;5074420;28;20169;-68
2021/07/19 09:54:46;;;;;;;9.07;6.00;;;;;;;29.66;42.51;98271.09;5091723;28;20100;-68
2021/07/19 09:57:13;;;;;;;10.52;5.80;;;;;;;29.60;42.11;98267.97;5092659;28;20560;-69
2021/07/19 09:59:56;;;;;;;6.13;5.43;;;;;;;29.43;41.03;98266.03;5091119;28;20035;-68
2021/07/19 10:02:43;;;;;;;7.35;5.32;;;;;;;29.22;40.24;98263.31;5074967;28;20483;-70
2021/07/19 10:05:10;;;;;;;9.23;5.30;;;;;;;29.01;41.37;98266.75;5090622;28;20455;-70
2021/07/19 10:07:44;;;;;;;5.90;5.30;;;;;;;28.98;41.59;98269.09;5091530;28;20066;-69
2021/07/19 10:10:10;;;;;;;6.13;5.53;;;;;;;28.99;41.86;98265.19;5090038;28;20397;-69
2021/07/19 10:12:36;;;;;;;6.35;5.30;;;;;;;28.91;42.10;98265.56;5091966;28;20048;-71
2021/07/19 10:15:05;;;;;;;9.25;5.95;;;;;;;28.83;42.27;98272.19;5090494;28;20086;-68
2021/07/19 10:17:31;;;;;;;9.43;5.53;;;;;;;28.82;42.03;98265.16;5092229;28;20036;-69
2021/07/19 10:19:57;;;;;;;8.07;5.35;;;;;;;28.85;42.51;98278.00;5074186;28;20083;-69
2021/07/19 10:22:23;;;;;;;7.57;5.18;;;;;;;28.80;41.49;98267.50;5087717;28;20064;-69
2021/07/19 10:24:51;;;;;;;7.28;5.57;;;;;;;28.83;42.31;98280.38;5091064;28;20100;-69
2021/07/19 10:27:26;;;;;;;11.30;5.55;;;;;;;28.72;42.00;98274.88;5089239;28;20048;-70
2021/07/19 10:29:53;;;;;;;9.35;5.65;;;;;;;28.68;42.64;98279.56;5089553;28;20032;-70
2021/07/19 10:32:23;;;;;;;8.20;5.72;;;;;;;28.56;43.45;98274.41;5088989;28;20051;-68
2021/07/19 10:34:50;;;;;;;8.43;5.82;;;;;;;28.63;43.65;98271.75;5089602;28;20147;-69
2021/07/19 10:37:32;;;;;;;10.15;6.20;;;;;;;28.60;44.13;98265.09;5070079;28;20083;-69
2021/07/19 10:39:59;;;;;;;9.77;5.22;;;;;;;28.56;43.42;98260.78;5090012;28;20524;-69
2021/07/19 10:42:41;;;;;;;7.05;5.88;;;;;;;28.56;43.07;98258.06;5089766;28;20043;-69
2021/07/19 10:45:11;;;;;;;6.95;5.72;;;;;;;28.67;43.22;98264.34;5090413;28;20472;-69
2021/07/19 10:47:52;;;;;;;8.30;6.10;;;;;;;28.75;42.70;98253.06;5090048;28;20465;-68
2021/07/19 10:50:25;;;;;;;9.27;5.78;;;;;;;28.79;43.79;98261.25;5090777;28;20044;-69
2021/07/19 10:52:54;;;;;;;6.75;6.07;;;;;;;28.89;42.86;98254.28;5089343;28;20036;-68
2021/07/19 10:55:30;;;;;;;8.07;5.38;;;;;;;28.99;41.66;98250.75;5087000;28;20067;-67
2021/07/19 10:58:02;;;;;;;7.28;5.43;;;;;;;29.05;41.45;98248.47;5089992;28;20048;-69
2021/07/19 11:00:28;;;;;;;13.43;5.88;;;;;;;28.98;39.77;98249.22;5089178;28;20040;-68
2021/07/19 11:03:06;;;;;;;6.72;5.30;;;;;;;28.89;40.08;98248.81;5091572;28;20043;-67
2021/07/19 11:05:54;;;;;;;7.22;5.60;;;;;;;28.75;39.82;98242.16;5090549;28;20048;-68
2021/07/19 11:08:25;;;;;;;7.97;5.07;;;;;;;28.78;40.85;98240.59;5090642;28;20089;-70
2021/07/19 11:10:53;;;;;;;7.63;4.97;;;;;;;28.85;41.42;98239.84;5082007;28;20052;-69
2021/07/19 11:13:35;;;;;;;12.93;5.88;;;;;;;28.88;39.90;98239.84;5071132;28;20043;-70
2021/07/19 11:16:01;;;;;;;6.65;5.20;;;;;;;28.96;39.86;98235.19;5082369;28;20135;-69
2021/07/19 11:18:32;;;;;;;8.05;5.53;;;;;;;29.01;40.21;98236.75;5084229;28;20047;-68
2021/07/19 11:21:02;;;;;;;6.82;4.95;;;;;;;29.11;40.31;98233.28;5089661;28;20036;-70
2021/07/19 11:23:37;;;;;;;5.65;4.95;;;;;;;29.12;38.92;98230.16;5089002;28;20044;-71
2021/07/19 11:26:05;;;;;;;8.73;5.35;;;;;;;29.22;39.90;98225.88;5088321;28;20048;-70
2021/07/19 11:28:40;;;;;;;7.65;5.07;;;;;;;29.30;39.64;98230.16;5090124;28;20044;-69
2021/07/19 11:31:26;;;;;;;5.72;5.07;;;;;;;29.29;38.81;98230.53;5088268;28;20509;-70
2021/07/19 11:34:03;;;;;;;7.65;5.38;;;;;;;29.17;38.90;98227.03;5088230;28;20040;-68
2021/07/19 11:36:32;;;;;;;6.85;5.43;;;;;;;29.15;38.20;98229.38;5091137;28;20090;-70
2021/07/19 11:39:01;;;;;;;8.60;5.20;;;;;;;29.12;38.03;98218.44;5091650;28;20170;-69
2021/07/19 11:41:34;;;;;;;9.10;5.10;;;;;;;29.10;37.87;98226.25;5090985;28;20048;-68
2021/07/19 11:44:05;;;;;;;6.38;5.05;;;;;;;29.04;38.39;98217.69;5073278;28;20108;-69
2021/07/19 11:46:34;;;;;;;8.38;5.32;;;;;;;28.85;38.50;98220.75;5072005;28;20056;-70
2021/07/19 11:49:03;;;;;;;6.00;5.15;;;;;;;28.86;38.51;98217.63;5090728;28;20059;-69
2021/07/19 11:51:30;;;;;;;7.07;5.15;;;;;;;28.90;38.67;98207.50;5090950;28;20044;-69
2021/07/19 11:53:58;;;;;;;6.53;5.15;;;;;;;28.98;37.98;98211.03;5089416;28;20048;-69
2021/07/19 11:56:26;;;;;;;5.90;5.18;;;;;;;29.02;37.54;98208.28;5088914;28;20045;-69